createdAt,value
2023-04-16T06:20:54.189Z,14.81
2023-04-16T06:30:53.308Z,16.78
2023-04-16T06:40:53.207Z,14.04
2023-04-16T06:50:53.245Z,16.24
2023-04-16T07:00:53.197Z,17.62
2023-04-16T07:10:53.325Z,18.61
2023-04-16T07:20:53.275Z,19.39
2023-04-16T07:30:53.391Z,20.75
2023-04-16T07:40:53.271Z,19.09
2023-04-16T07:50:53.332Z,19.38
2023-04-16T08:00:53.362Z,18.31
2023-04-16T08:10:53.300Z,21.33
2023-04-16T08:20:53.310Z,17.65
2023-04-16T08:30:53.365Z,14.78
2023-04-16T08:40:53.601Z,14.94
2023-04-16T08:50:53.419Z,18.09
2023-04-16T09:00:53.460Z,17.41
2023-04-16T09:10:53.495Z,17.43
2023-04-16T09:20:53.560Z,15.98
2023-04-16T09:30:53.441Z,15.49
2023-04-16T09:40:53.502Z,10.72
2023-04-16T09:50:53.579Z,13.82
2023-04-16T10:00:53.541Z,9.07
2023-04-16T10:10:53.602Z,13.44
2023-04-16T10:20:53.612Z,11.58
2023-04-16T10:30:53.563Z,8.48
2023-04-16T10:40:53.639Z,7.68
2023-04-16T10:50:53.937Z,8.09
2023-04-16T11:00:53.708Z,7.81
2023-04-16T11:10:53.612Z,8.36
2023-04-16T11:20:53.655Z,8.93
2023-04-16T11:30:53.656Z,9.74
2023-04-16T11:40:53.687Z,11.14
2023-04-16T11:50:53.629Z,8.03
2023-04-16T12:00:53.632Z,8.80
2023-04-16T12:10:53.731Z,9.55
2023-04-16T12:20:53.775Z,6.73
2023-04-16T12:30:53.814Z,6.59
2023-04-16T12:40:53.880Z,9.70
2023-04-16T12:50:53.714Z,10.66
2023-04-16T13:00:53.890Z,10.75
2023-04-16T13:10:53.938Z,7.89
2023-04-16T13:20:53.919Z,0.00
2023-04-16T13:30:53.863Z,0.00
2023-04-16T13:40:54.044Z,0.00
2023-04-16T13:50:53.756Z,0.00
2023-04-16T14:00:53.866Z,0.00
2023-04-16T14:10:55.625Z,0.00
2023-04-16T14:20:53.812Z,0.00
2023-04-16T14:30:53.888Z,0.00
2023-04-16T14:40:53.920Z,15.61
2023-04-16T14:50:54.132Z,16.10
2023-04-16T15:00:53.858Z,19.74
2023-04-16T15:10:53.853Z,20.20
2023-04-16T15:20:53.988Z,15.52
2023-04-16T15:30:53.978Z,12.72
2023-04-16T15:40:54.115Z,3.29
2023-04-16T15:50:53.952Z,0.74
2023-04-16T16:00:54.047Z,18.95
2023-04-16T16:10:54.112Z,17.20
2023-04-16T16:20:54.094Z,17.86
2023-04-16T16:30:54.001Z,19.26
2023-04-16T16:40:53.990Z,17.90
2023-04-16T16:50:54.071Z,14.56
2023-04-16T17:00:54.185Z,17.56
2023-04-16T17:10:54.372Z,18.46
2023-04-16T17:20:53.954Z,16.30
2023-04-16T17:30:54.097Z,12.43
2023-04-16T17:40:54.035Z,15.78
2023-04-16T17:50:54.173Z,15.08
2023-04-16T18:00:54.128Z,11.99
2023-04-16T18:10:54.064Z,11.01
2023-04-16T18:20:54.252Z,14.94
2023-04-16T18:30:57.194Z,10.67
2023-04-16T18:40:54.254Z,10.77
2023-04-16T18:50:54.244Z,12.18
2023-04-16T19:00:55.351Z,10.41
2023-04-16T19:10:54.238Z,9.38
2023-04-16T19:20:54.275Z,10.91
